createdAt,value
2022-08-16T00:01:11.824Z,63.95
2022-08-16T00:03:38.876Z,63.90
2022-08-16T00:06:08.142Z,64.02
2022-08-16T00:08:37.799Z,64.06
2022-08-16T00:11:15.158Z,64.38
2022-08-16T00:13:43.170Z,64.34
2022-08-16T00:17:05.551Z,64.69
2022-08-16T00:19:06.458Z,64.75
2022-08-16T00:21:33.940Z,64.70
2022-08-16T00:24:04.799Z,65.00
2022-08-16T00:26:36.160Z,65.14
2022-08-16T00:29:05.667Z,65.88
2022-08-16T00:31:58.857Z,65.95
2022-08-16T00:34:44.781Z,65.97
2022-08-16T00:37:11.634Z,66.67
2022-08-16T00:39:38.988Z,66.25
2022-08-16T00:42:10.118Z,66.77
2022-08-16T00:44:39.511Z,67.54
2022-08-16T00:47:16.353Z,67.89
2022-08-16T00:49:44.439Z,68.04
2022-08-16T00:52:30.201Z,68.27
2022-08-16T00:54:59.350Z,68.47
2022-08-16T00:57:58.302Z,68.63
2022-08-16T01:00:19.866Z,68.95
2022-08-16T01:02:48.954Z,68.67
2022-08-16T01:05:16.211Z,69.14
2022-08-16T01:07:52.007Z,69.08
2022-08-16T01:10:31.326Z,69.08
2022-08-16T01:13:04.527Z,69.37
2022-08-16T01:15:33.923Z,69.51
2022-08-16T01:18:02.965Z,70.04
2022-08-16T01:20:33.947Z,70.46
2022-08-16T01:23:17.837Z,70.74
2022-08-16T01:25:59.851Z,70.75
2022-08-16T01:28:30.622Z,70.64
2022-08-16T01:30:59.795Z,70.34
2022-08-16T01:33:33.303Z,70.13
2022-08-16T01:36:11.812Z,70.42
2022-08-16T01:38:49.003Z,70.33
2022-08-16T01:41:22.814Z,70.38
2022-08-16T01:43:53.755Z,70.35
2022-08-16T01:46:40.014Z,70.46
2022-08-16T01:49:43.668Z,70.19
2022-08-16T01:52:28.187Z,70.03
2022-08-16T01:54:58.263Z,69.82
2022-08-16T01:57:27.802Z,70.35
2022-08-16T01:59:58.484Z,70.20
2022-08-16T02:02:27.288Z,70.21
2022-08-16T02:04:55.342Z,70.31
2022-08-16T02:07:23.746Z,70.62
2022-08-16T02:09:58.892Z,70.56
2022-08-16T02:12:50.044Z,70.67
2022-08-16T02:15:25.469Z,70.45
2022-08-16T02:17:53.253Z,70.66
2022-08-16T02:20:26.388Z,71.09
2022-08-16T02:22:55.322Z,70.97
2022-08-16T02:25:22.751Z,70.87
2022-08-16T02:27:51.488Z,71.14
2022-08-16T02:30:37.553Z,71.37
2022-08-16T02:33:10.295Z,71.73
2022-08-16T02:35:54.093Z,71.40
2022-08-16T02:38:24.978Z,71.43
2022-08-16T02:40:54.417Z,71.13
2022-08-16T02:43:26.654Z,71.49
2022-08-16T02:45:54.200Z,71.31
2022-08-16T02:48:29.502Z,71.39
2022-08-16T02:51:10.691Z,71.22
2022-08-16T02:53:47.505Z,71.21
2022-08-16T02:56:17.920Z,70.86
2022-08-16T02:58:50.659Z,70.60
2022-08-16T03:01:33.745Z,70.39
2022-08-16T03:04:41.132Z,69.77
2022-08-16T03:06:55.271Z,69.91
2022-08-16T03:09:24.332Z,69.64
2022-08-16T03:11:51.011Z,69.90
2022-08-16T03:14:21.405Z,69.60
2022-08-16T03:16:59.212Z,69.42
2022-08-16T03:19:47.431Z,69.96
2022-08-16T03:22:18.985Z,69.98
2022-08-16T03:24:54.783Z,69.82
2022-08-16T03:27:25.138Z,70.47
2022-08-16T03:29:57.831Z,70.33
2022-08-16T03:32:24.480Z,70.42
2022-08-16T03:34:52.927Z,70.39
2022-08-16T03:37:19.657Z,70.88
2022-08-16T03:39:47.029Z,71.27
2022-08-16T03:42:20.502Z,71.23
2022-08-16T03:44:50.004Z,72.14
2022-08-16T03:47:19.115Z,72.72
2022-08-16T03:49:51.410Z,72.42
2022-08-16T03:52:20.589Z,72.95
2022-08-16T03:54:57.452Z,73.08
2022-08-16T03:57:31.762Z,73.48
2022-08-16T04:00:35.555Z,73.93
2022-08-16T04:03:08.802Z,73.84
2022-08-16T04:05:48.457Z,73.77
2022-08-16T04:08:23.051Z,74.04
2022-08-16T04:10:51.817Z,74.46
2022-08-16T04:13:20.238Z,74.27
2022-08-16T04:16:06.563Z,74.28
2022-08-16T04:18:36.818Z,74.63
2022-08-16T04:21:04.018Z,74.65
2022-08-16T04:23:30.680Z,74.50
2022-08-16T04:25:57.377Z,74.96
2022-08-16T04:28:54.357Z,75.26
2022-08-16T04:31:15.642Z,75.14
2022-08-16T04:33:50.873Z,75.29
2022-08-16T04:36:20.212Z,75.22
2022-08-16T04:38:47.270Z,75.30
2022-08-16T04:41:17.499Z,75.51
2022-08-16T04:43:44.731Z,75.60
2022-08-16T04:47:00.130Z,75.66
2022-08-16T04:49:03.899Z,75.68
2022-08-16T04:51:36.066Z,75.73
2022-08-16T04:54:06.081Z,75.39
2022-08-16T04:56:33.371Z,75.37
2022-08-16T04:59:00.734Z,74.94
2022-08-16T05:01:57.758Z,74.81
2022-08-16T05:04:19.240Z,74.35
2022-08-16T05:06:46.599Z,74.10
2022-08-16T05:09:14.517Z,74.39
2022-08-16T05:11:43.275Z,74.79
2022-08-16T05:14:10.159Z,74.63
2022-08-16T05:16:36.870Z,75.36
2022-08-16T05:19:04.950Z,75.06
2022-08-16T05:21:36.020Z,75.07
2022-08-16T05:24:07.137Z,74.71
2022-08-16T05:26:37.553Z,74.55
2022-08-16T05:29:10.817Z,74.50
2022-08-16T05:31:44.189Z,73.67
2022-08-16T05:34:19.950Z,73.03
2022-08-16T05:36:51.154Z,73.44
2022-08-16T05:39:18.812Z,72.98
2022-08-16T05:41:47.755Z,72.92
2022-08-16T05:44:22.904Z,72.72
2022-08-16T05:47:00.318Z,72.80
2022-08-16T05:49:38.901Z,72.69
2022-08-16T05:52:11.375Z,72.36
2022-08-16T05:54:45.950Z,72.06
2022-08-16T05:57:14.552Z,71.87
2022-08-16T05:59:41.870Z,71.59
2022-08-16T06:02:08.614Z,72.35
2022-08-16T06:04:37.539Z,72.62
2022-08-16T06:07:08.164Z,72.91
2022-08-16T06:09:37.155Z,73.04
2022-08-16T06:12:10.976Z,72.66
2022-08-16T06:14:40.107Z,72.46
2022-08-16T06:17:07.610Z,72.08
2022-08-16T06:19:35.796Z,71.95
2022-08-16T06:22:03.253Z,71.33
2022-08-16T06:24:53.815Z,71.33
2022-08-16T06:27:17.144Z,70.90
2022-08-16T06:29:44.702Z,71.02
2022-08-16T06:32:27.369Z,70.84
2022-08-16T06:35:02.834Z,70.34
2022-08-16T06:37:36.974Z,70.22
2022-08-16T06:40:05.628Z,69.94
2022-08-16T06:42:47.907Z,69.77
2022-08-16T06:45:15.705Z,69.51
2022-08-16T06:47:53.396Z,69.41
2022-08-16T06:50:31.533Z,69.39
2022-08-16T06:53:06.837Z,69.01
2022-08-16T06:55:38.289Z,69.33
2022-08-16T06:58:08.095Z,68.04
2022-08-16T07:00:37.637Z,67.65
2022-08-16T07:03:26.809Z,67.56
2022-08-16T07:05:53.926Z,66.54
2022-08-16T07:08:21.063Z,65.71
2022-08-16T07:10:47.838Z,66.00
2022-08-16T07:13:23.052Z,66.64
2022-08-16T07:16:02.709Z,66.07
2022-08-16T07:18:29.579Z,65.35
2022-08-16T07:21:01.711Z,65.73
2022-08-16T07:23:37.204Z,65.93
2022-08-16T07:26:08.498Z,65.76
2022-08-16T07:28:35.563Z,66.13
2022-08-16T07:31:03.309Z,66.10
2022-08-16T07:33:53.801Z,64.46
2022-08-16T07:36:22.837Z,65.02
2022-08-16T07:38:49.976Z,65.17
2022-08-16T07:41:17.458Z,66.08
2022-08-16T07:43:46.268Z,62.31
2022-08-16T07:46:38.752Z,61.25
2022-08-16T07:49:03.720Z,59.65
2022-08-16T07:51:35.581Z,60.34
2022-08-16T07:54:09.630Z,60.93
2022-08-16T07:56:38.093Z,59.41
2022-08-16T07:59:05.775Z,60.13
2022-08-16T08:01:33.571Z,60.57
2022-08-16T08:04:04.441Z,60.66
2022-08-16T08:10:29.657Z,61.40
2022-08-16T08:12:59.369Z,60.98
2022-08-16T08:19:20.981Z,62.67
2022-08-16T08:21:58.952Z,59.83
2022-08-16T08:24:32.343Z,60.92
2022-08-16T08:27:04.303Z,61.29
2022-08-16T08:29:37.450Z,60.95
2022-08-16T08:32:58.624Z,60.80
2022-08-16T08:34:52.563Z,60.91
2022-08-16T08:37:20.095Z,58.16
2022-08-16T08:39:55.299Z,58.04
2022-08-16T08:42:26.781Z,59.05
2022-08-16T08:44:54.716Z,59.62
2022-08-16T08:47:21.410Z,57.75
2022-08-16T08:49:55.188Z,57.58
2022-08-16T08:52:35.369Z,58.14
2022-08-16T08:55:09.237Z,58.33
2022-08-16T08:57:38.084Z,57.88
2022-08-16T09:00:07.896Z,58.41
2022-08-16T09:02:42.741Z,57.70
2022-08-16T09:05:15.442Z,56.55
2022-08-16T09:08:00.539Z,56.24
2022-08-16T09:10:30.598Z,55.66
2022-08-16T09:12:58.864Z,55.86
2022-08-16T09:19:16.523Z,55.44
2022-08-16T09:21:59.482Z,55.35
2022-08-16T09:24:51.474Z,55.47
2022-08-16T09:27:13.224Z,55.32
2022-08-16T09:29:45.349Z,56.08
2022-08-16T09:32:12.870Z,54.83
2022-08-16T09:34:58.281Z,54.51
2022-08-16T09:37:29.577Z,54.71
2022-08-16T09:40:01.051Z,54.59
2022-08-16T09:42:29.391Z,54.01
2022-08-16T09:45:11.823Z,53.78
2022-08-16T09:47:57.038Z,53.82
2022-08-16T09:50:36.830Z,54.94
2022-08-16T09:53:15.408Z,53.11
2022-08-16T09:55:49.442Z,53.48
2022-08-16T09:58:40.673Z,51.75
2022-08-16T10:01:08.738Z,53.04
2022-08-16T10:03:38.399Z,53.20
2022-08-16T10:06:26.250Z,51.51
2022-08-16T10:09:05.999Z,51.61
2022-08-16T10:11:54.014Z,51.23
2022-08-16T10:14:24.987Z,51.67
2022-08-16T10:17:02.704Z,48.81
2022-08-16T10:19:29.517Z,49.47
2022-08-16T10:21:58.989Z,49.73
2022-08-16T10:24:28.316Z,49.40
2022-08-16T10:27:16.668Z,49.72
2022-08-16T10:30:00.360Z,49.76
2022-08-16T10:32:30.546Z,49.46
2022-08-16T10:34:58.554Z,49.51
2022-08-16T10:37:32.751Z,50.09
2022-08-16T10:40:29.632Z,49.37
2022-08-16T10:42:56.253Z,48.90
2022-08-16T10:45:23.124Z,47.02
2022-08-16T10:48:00.552Z,47.17
2022-08-16T10:50:32.499Z,47.64
2022-08-16T10:53:00.102Z,48.37
2022-08-16T10:55:40.913Z,49.06
2022-08-16T10:58:13.708Z,48.18
2022-08-16T11:00:45.989Z,47.92
2022-08-16T11:06:03.222Z,48.11
2022-08-16T11:08:36.428Z,48.79
2022-08-16T11:11:13.005Z,48.58
2022-08-16T11:14:10.681Z,48.07
2022-08-16T11:19:22.798Z,45.33
2022-08-16T11:24:42.251Z,45.62
2022-08-16T11:27:23.463Z,46.75
2022-08-16T11:29:53.371Z,47.75
2022-08-16T11:32:31.366Z,44.51
2022-08-16T11:35:13.556Z,44.97
2022-08-16T11:40:56.799Z,45.28
2022-08-16T11:43:28.935Z,45.16
2022-08-16T11:45:57.831Z,44.88
2022-08-16T11:48:33.373Z,45.71
2022-08-16T11:51:01.683Z,44.25
2022-08-16T11:53:29.680Z,46.09
2022-08-16T11:56:03.436Z,44.85
2022-08-16T11:58:34.010Z,46.16
2022-08-16T12:01:00.855Z,46.01
2022-08-16T12:03:35.429Z,47.22
2022-08-16T12:06:10.994Z,45.00
2022-08-16T12:08:57.443Z,43.32
2022-08-16T12:11:28.153Z,43.23
2022-08-16T12:13:59.303Z,42.62
2022-08-16T12:16:31.181Z,44.50
2022-08-16T12:19:00.982Z,44.35
2022-08-16T12:21:57.543Z,46.02
2022-08-16T12:24:14.838Z,45.76
2022-08-16T12:26:42.656Z,45.00
2022-08-16T12:29:10.566Z,44.10
2022-08-16T12:31:37.298Z,43.39
2022-08-16T12:34:28.841Z,42.72
2022-08-16T12:36:56.023Z,43.11
2022-08-16T12:39:23.098Z,43.94
2022-08-16T12:41:49.953Z,44.12
2022-08-16T12:44:19.877Z,45.05
2022-08-16T12:47:08.237Z,43.87
2022-08-16T12:49:41.910Z,44.97
2022-08-16T12:52:09.072Z,44.63
2022-08-16T12:54:37.446Z,43.92
2022-08-16T12:57:14.002Z,43.03
2022-08-16T12:59:42.059Z,44.37
2022-08-16T13:02:12.576Z,43.11
2022-08-16T13:04:49.902Z,45.56
2022-08-16T13:07:18.142Z,45.64
2022-08-16T13:09:58.336Z,45.11
2022-08-16T13:12:28.439Z,46.01
2022-08-16T13:14:55.934Z,43.37
2022-08-16T13:17:26.502Z,43.00
2022-08-16T13:20:12.593Z,43.91
2022-08-16T13:22:49.957Z,43.53
2022-08-16T13:25:21.437Z,43.06
2022-08-16T13:28:03.100Z,42.32
2022-08-16T13:30:41.767Z,43.20
2022-08-16T13:33:16.923Z,42.68
2022-08-16T13:35:55.898Z,42.25
2022-08-16T13:38:26.058Z,41.46
2022-08-16T13:40:57.322Z,42.72
2022-08-16T13:43:26.399Z,44.51
2022-08-16T13:45:54.082Z,44.01
2022-08-16T13:48:25.346Z,42.25
2022-08-16T13:51:02.469Z,42.58
2022-08-16T13:53:31.024Z,43.62
2022-08-16T13:55:59.573Z,43.49
2022-08-16T13:58:36.716Z,42.48
2022-08-16T14:01:09.804Z,44.85
2022-08-16T14:03:40.998Z,43.07
2022-08-16T14:06:10.566Z,41.88
2022-08-16T14:08:42.005Z,43.16
2022-08-16T14:11:11.740Z,43.54
2022-08-16T14:13:39.662Z,42.32
2022-08-16T14:16:12.643Z,41.92
2022-08-16T14:18:52.662Z,41.69
2022-08-16T14:21:23.576Z,42.31
2022-08-16T14:23:52.290Z,42.31
2022-08-16T14:26:21.218Z,42.36
2022-08-16T14:28:50.400Z,42.28
2022-08-16T14:31:18.401Z,42.32
2022-08-16T14:33:45.534Z,43.99
2022-08-16T14:36:12.316Z,41.79
2022-08-16T14:38:45.560Z,42.92
2022-08-16T14:41:13.711Z,43.09
2022-08-16T14:43:40.623Z,42.13
2022-08-16T14:46:07.751Z,41.76
2022-08-16T14:48:34.816Z,41.87
2022-08-16T14:51:01.893Z,42.96
2022-08-16T14:53:28.808Z,42.65
2022-08-16T14:55:58.518Z,43.14
2022-08-16T14:58:34.995Z,42.95
2022-08-16T15:01:06.121Z,43.13
2022-08-16T15:03:37.382Z,42.57
2022-08-16T15:06:04.934Z,42.33
2022-08-16T15:08:34.157Z,42.81
2022-08-16T15:11:05.309Z,43.22
2022-08-16T15:13:32.529Z,44.33
2022-08-16T15:16:02.753Z,44.06
2022-08-16T15:18:31.561Z,44.17
2022-08-16T15:20:59.752Z,42.27
2022-08-16T15:23:28.400Z,42.88
2022-08-16T15:26:03.651Z,42.44
2022-08-16T15:28:32.780Z,41.90
2022-08-16T15:31:06.077Z,42.34
2022-08-16T15:33:43.335Z,44.20
2022-08-16T15:36:18.325Z,43.09
2022-08-16T15:38:56.189Z,42.83
2022-08-16T15:42:01.928Z,44.10
2022-08-16T15:44:38.910Z,42.76
2022-08-16T15:47:18.850Z,43.10
2022-08-16T15:49:53.091Z,41.92
2022-08-16T15:52:35.576Z,43.64
2022-08-16T15:55:23.654Z,44.57
2022-08-16T15:57:54.796Z,42.94
2022-08-16T16:00:21.774Z,43.84
2022-08-16T16:02:49.587Z,45.26
2022-08-16T16:05:17.127Z,44.32
2022-08-16T16:07:56.492Z,45.17
2022-08-16T16:10:31.415Z,43.49
2022-08-16T16:13:03.821Z,43.94
2022-08-16T16:15:34.766Z,45.58
2022-08-16T16:18:09.193Z,44.28
2022-08-16T16:20:37.354Z,44.09
2022-08-16T16:23:10.305Z,44.14
2022-08-16T16:25:38.774Z,43.56
2022-08-16T16:28:12.677Z,44.77
2022-08-16T16:30:44.857Z,45.74
2022-08-16T16:33:21.118Z,45.39
2022-08-16T16:35:55.579Z,45.81
2022-08-16T16:38:28.746Z,45.52
2022-08-16T16:40:56.002Z,45.20
2022-08-16T16:43:25.502Z,45.95
2022-08-16T16:45:58.271Z,46.08
2022-08-16T16:48:34.448Z,45.76
2022-08-16T16:51:09.022Z,46.38
2022-08-16T16:53:56.196Z,45.79
2022-08-16T16:56:31.089Z,46.30
2022-08-16T16:59:06.689Z,45.83
2022-08-16T17:01:59.344Z,46.46
2022-08-16T17:04:31.993Z,46.88
2022-08-16T17:07:03.712Z,47.51
2022-08-16T17:09:34.478Z,46.34
2022-08-16T17:12:07.731Z,47.14
2022-08-16T17:14:35.734Z,47.60
2022-08-16T17:17:08.623Z,47.65
2022-08-16T17:19:41.163Z,47.07
2022-08-16T17:22:15.218Z,46.93
2022-08-16T17:24:44.942Z,48.00
2022-08-16T17:27:18.081Z,47.35
2022-08-16T17:29:51.434Z,47.58
2022-08-16T17:32:33.844Z,48.74
2022-08-16T17:35:18.387Z,49.55
2022-08-16T17:37:51.686Z,49.96
2022-08-16T17:40:46.760Z,51.04
2022-08-16T17:43:16.330Z,50.33
2022-08-16T17:45:43.399Z,48.24
2022-08-16T17:48:10.836Z,49.05
2022-08-16T17:50:37.893Z,48.79
2022-08-16T17:53:05.211Z,48.95
2022-08-16T17:55:35.814Z,49.30
2022-08-16T17:58:09.748Z,49.28
2022-08-16T18:00:49.179Z,50.11
2022-08-16T18:04:07.373Z,49.77
2022-08-16T18:06:12.648Z,50.65
2022-08-16T18:08:39.924Z,51.81
2022-08-16T18:11:07.988Z,52.23
2022-08-16T18:13:34.746Z,52.46
2022-08-16T18:16:01.708Z,52.46
2022-08-16T18:18:28.414Z,52.04
2022-08-16T18:21:13.995Z,52.65
2022-08-16T18:23:40.733Z,53.42
2022-08-16T18:26:08.007Z,54.28
2022-08-16T18:28:37.774Z,53.90
2022-08-16T18:31:08.637Z,53.98
2022-08-16T18:33:43.312Z,54.38
2022-08-16T18:36:20.618Z,54.34
2022-08-16T18:38:48.930Z,54.68
2022-08-16T18:41:16.458Z,54.84
2022-08-16T18:44:22.256Z,54.91
2022-08-16T18:46:30.017Z,55.06
2022-08-16T18:48:57.027Z,55.36
2022-08-16T18:51:25.401Z,55.96
2022-08-16T18:53:52.507Z,56.23
2022-08-16T18:56:19.674Z,56.79
2022-08-16T18:58:46.608Z,57.27
2022-08-16T19:01:13.605Z,57.50
2022-08-16T19:03:40.516Z,57.30
2022-08-16T19:06:14.232Z,57.51
2022-08-16T19:08:44.125Z,57.86
2022-08-16T19:11:14.035Z,57.90
2022-08-16T19:13:44.284Z,58.13
2022-08-16T19:16:13.360Z,58.35
2022-08-16T19:18:40.642Z,58.80
2022-08-16T19:21:08.858Z,59.12
2022-08-16T19:23:37.227Z,59.42
2022-08-16T19:26:11.092Z,60.07
2022-08-16T19:28:59.069Z,60.32
2022-08-16T19:31:34.040Z,60.48
2022-08-16T19:34:02.115Z,60.77
2022-08-16T19:36:36.171Z,60.81
2022-08-16T19:39:10.476Z,61.17
2022-08-16T19:41:39.812Z,61.52
2022-08-16T19:44:07.081Z,61.71
2022-08-16T19:46:34.499Z,61.76
2022-08-16T19:49:01.228Z,61.77
2022-08-16T19:51:28.584Z,61.75
2022-08-16T19:53:55.457Z,61.99
2022-08-16T19:56:25.666Z,62.30
2022-08-16T19:59:17.481Z,62.83
2022-08-16T20:01:42.187Z,63.25
2022-08-16T20:04:12.076Z,63.60
2022-08-16T20:06:39.429Z,63.99
2022-08-16T20:09:06.704Z,64.31
2022-08-16T20:11:34.783Z,64.51
2022-08-16T20:14:02.033Z,64.41
2022-08-16T20:16:31.287Z,64.81
2022-08-16T20:19:01.258Z,65.58
2022-08-16T20:21:28.452Z,65.90
2022-08-16T20:24:09.912Z,65.86
2022-08-16T20:26:41.955Z,65.80
2022-08-16T20:29:08.885Z,65.91
2022-08-16T20:31:35.754Z,65.94
2022-08-16T20:34:02.450Z,66.28
2022-08-16T20:36:29.911Z,66.44
2022-08-16T20:38:57.748Z,66.58
2022-08-16T20:41:24.495Z,66.69
2022-08-16T20:43:51.274Z,67.22
2022-08-16T20:46:22.212Z,67.96
2022-08-16T20:48:49.133Z,67.99
2022-08-16T20:51:16.593Z,68.17
2022-08-16T20:53:44.020Z,68.12
2022-08-16T20:56:12.088Z,67.98
2022-08-16T20:58:39.641Z,68.11
2022-08-16T21:01:07.216Z,68.18
2022-08-16T21:03:34.409Z,68.35
2022-08-16T21:06:02.278Z,68.59
2022-08-16T21:08:52.068Z,68.42
2022-08-16T21:11:16.647Z,68.95
2022-08-16T21:13:43.356Z,69.15
2022-08-16T21:16:10.854Z,69.77
2022-08-16T21:18:37.584Z,69.81
2022-08-16T21:21:04.328Z,70.07
2022-08-16T21:23:31.069Z,69.78
2022-08-16T21:25:59.698Z,70.31
2022-08-16T21:28:40.878Z,70.30
2022-08-16T21:31:15.213Z,70.49
2022-08-16T21:33:43.192Z,70.39
2022-08-16T21:36:11.211Z,70.70
2022-08-16T21:38:39.026Z,70.36
2022-08-16T21:41:12.824Z,70.41
2022-08-16T21:43:40.289Z,70.55
2022-08-16T21:46:08.337Z,70.56
2022-08-16T21:48:36.916Z,70.58
2022-08-16T21:51:11.089Z,70.67
2022-08-16T21:53:37.981Z,70.53
2022-08-16T21:56:05.813Z,70.76
2022-08-16T21:58:33.134Z,70.81
2022-08-16T22:01:01.129Z,70.77
2022-08-16T22:03:28.427Z,71.04
2022-08-16T22:06:11.643Z,71.03
2022-08-16T22:08:48.691Z,71.20
2022-08-16T22:11:22.780Z,71.33
2022-08-16T22:13:57.481Z,71.42
2022-08-16T22:16:27.238Z,71.39
2022-08-16T22:18:53.899Z,71.98
2022-08-16T22:21:20.555Z,71.91
2022-08-16T22:23:56.548Z,71.87
2022-08-16T22:26:32.004Z,72.07
2022-08-16T22:29:05.564Z,71.87
2022-08-16T22:31:32.984Z,72.43
2022-08-16T22:34:01.840Z,72.21
2022-08-16T22:36:30.108Z,72.25
2022-08-16T22:39:02.978Z,72.58
2022-08-16T22:41:34.610Z,72.67
2022-08-16T22:44:03.373Z,73.11
2022-08-16T22:46:30.431Z,72.91
2022-08-16T22:48:57.714Z,73.09
2022-08-16T22:51:27.016Z,73.93
2022-08-16T22:53:54.695Z,74.38
2022-08-16T22:56:22.486Z,74.34
2022-08-16T22:58:49.385Z,74.57
2022-08-16T23:01:17.853Z,74.62
2022-08-16T23:03:44.874Z,74.53
2022-08-16T23:06:12.517Z,74.91
2022-08-16T23:08:41.495Z,74.57
2022-08-16T23:11:11.396Z,74.51
2022-08-16T23:13:50.718Z,74.87
2022-08-16T23:16:21.899Z,75.14
2022-08-16T23:18:49.455Z,75.44
2022-08-16T23:21:18.025Z,75.54
2022-08-16T23:23:46.667Z,75.91
2022-08-16T23:26:46.783Z,75.98
2022-08-16T23:29:04.367Z,76.08
2022-08-16T23:31:32.675Z,75.91
2022-08-16T23:33:59.926Z,76.05
2022-08-16T23:36:26.639Z,76.13
2022-08-16T23:38:53.358Z,76.37
2022-08-16T23:41:20.334Z,76.57
2022-08-16T23:43:47.266Z,76.71
2022-08-16T23:46:17.277Z,76.51
2022-08-16T23:49:56.077Z,76.11
2022-08-16T23:51:32.356Z,76.54
2022-08-16T23:54:00.008Z,76.52
2022-08-16T23:56:26.711Z,76.68
2022-08-16T23:59:02.213Z,76.70
